Time;durP1;ratioP1;P1;durP2;ratioP2;P2;SDS_P1;SDS_P2;PMS_P1;PMS_P2;Temp;Humidity;BMP_temperature;BMP_pressure;BME280_temperature;BME280_humidity;BME280_pressure;Samples;Min_cycle;Max_cycle;Signal;HPM_P1;HPM_P2
2021/05/26 00:01:45;;;;;;;4.40;1.40;;;9.80;99.90;;;;;;6195432;23;20141;-83
2021/05/26 00:04:12;;;;;;;1.70;1.60;;;9.70;99.90;;;;;;6197343;23;20378;-83
2021/05/26 00:07:13;;;;;;;1.20;1.10;;;9.70;99.90;;;;;;6200590;23;20374;-83
2021/05/26 00:09:41;;;;;;;1.63;1.37;;;9.70;99.90;;;;;;6177242;23;20938;-83
2021/05/26 00:12:13;;;;;;;1.50;1.27;;;9.60;99.90;;;;;;6169713;23;20814;-83
2021/05/26 00:14:49;;;;;;;1.50;1.40;;;9.60;99.90;;;;;;6168481;23;20364;-83
2021/05/26 00:17:18;;;;;;;1.77;1.67;;;9.50;99.90;;;;;;6166474;23;20394;-83
2021/05/26 00:19:50;;;;;;;1.00;0.97;;;9.50;99.90;;;;;;6166063;23;20846;-83
2021/05/26 00:22:30;;;;;;;3.10;1.63;;;9.50;99.90;;;;;;6143549;23;20885;-84
2021/05/26 00:25:14;;;;;;;4.37;1.40;;;9.50;99.90;;;;;;6145029;23;20398;-82
2021/05/26 00:27:57;;;;;;;;;;;;;;;;;;;;;
2021/05/26 00:30:31;;;;;;;5.03;2.70;;;9.60;99.90;;;;;;6167126;23;20356;-82
2021/05/26 00:33:11;;;;;;;2.07;1.30;;;9.50;99.90;;;;;;6173468;23;20379;-82
2021/05/26 00:35:47;;;;;;;1.43;1.33;;;9.60;99.90;;;;;;6166178;23;20415;-83
2021/05/26 00:38:34;;;;;;;1.50;1.40;;;9.60;99.90;;;;;;6166218;23;20387;-83
2021/05/26 00:41:12;;;;;;;2.97;1.60;;;9.60;99.90;;;;;;6166263;23;20376;-82
2021/05/26 00:43:50;;;;;;;1.30;1.10;;;9.60;99.90;;;;;;6143540;23;20431;-83
2021/05/26 00:46:24;;;;;;;1.10;1.00;;;9.60;99.90;;;;;;6142507;23;20379;-82
2021/05/26 00:49:03;;;;;;;;;;;;;;;;;;;;;
2021/05/26 00:51:33;;;;;;;1.40;1.00;;;9.50;99.90;;;;;;6165904;23;20838;-82
2021/05/26 00:53:59;;;;;;;3.73;1.00;;;9.50;99.90;;;;;;6141350;23;20395;-82
2021/05/26 00:56:27;;;;;;;1.73;1.10;;;9.50;99.90;;;;;;6140815;23;20386;-83
2021/05/26 00:58:58;;;;;;;1.93;1.27;;;9.60;99.90;;;;;;6166019;23;20423;-83
2021/05/26 01:01:50;;;;;;;1.20;1.10;;;9.60;99.90;;;;;;6143368;23;20402;-83
2021/05/26 01:04:24;;;;;;;1.70;1.30;;;9.60;99.90;;;;;;6164881;23;20417;-83
2021/05/26 01:07:05;;;;;;;4.67;1.47;;;9.60;99.90;;;;;;6143257;23;20466;-83
2021/05/26 01:09:36;;;;;;;1.50;1.40;;;9.60;99.90;;;;;;6165902;23;20420;-83
2021/05/26 01:12:09;;;;;;;1.43;1.10;;;9.60;99.90;;;;;;6166711;23;20727;-83
2021/05/26 01:14:35;;;;;;;1.20;1.10;;;9.60;99.90;;;;;;6163521;23;20432;-83
2021/05/26 01:17:11;;;;;;;;;;;;;;;;;;;;;
2021/05/26 01:19:39;;;;;;;1.60;1.30;;;9.60;99.90;;;;;;6167070;23;20399;-83
2021/05/26 01:22:18;;;;;;;2.83;1.20;;;9.60;99.90;;;;;;6166465;23;20391;-83
2021/05/26 01:24:50;;;;;;;3.83;1.30;;;9.60;99.90;;;;;;6166057;23;20394;-83
2021/05/26 01:27:27;;;;;;;1.70;1.60;;;9.60;99.90;;;;;;6167546;23;20693;-83
2021/05/26 01:30:00;;;;;;;1.20;1.00;;;9.60;99.90;;;;;;6165866;23;20489;-83
2021/05/26 01:32:51;;;;;;;4.20;1.20;;;9.70;99.90;;;;;;6166281;23;20394;-83
2021/05/26 01:35:25;;;;;;;2.10;1.60;;;9.70;99.90;;;;;;6142341;23;20387;-83
2021/05/26 01:37:56;;;;;;;2.43;1.30;;;9.70;99.90;;;;;;6142144;23;20368;-83
2021/05/26 01:40:27;;;;;;;4.60;1.10;;;9.70;99.90;;;;;;6142243;23;20926;-83
2021/05/26 01:42:57;;;;;;;3.00;1.80;;;9.70;99.90;;;;;;6167144;23;20363;-83
2021/05/26 01:45:28;;;;;;;3.03;1.80;;;9.70;99.90;;;;;;6165893;23;20379;-82
2021/05/26 01:47:54;;;;;;;1.30;1.20;;;9.70;99.90;;;;;;6165895;23;20755;-83
2021/05/26 01:50:22;;;;;;;2.00;1.40;;;9.70;99.90;;;;;;6166655;23;20388;-83
2021/05/26 01:53:16;;;;;;;1.43;1.30;;;9.70;99.90;;;;;;6165508;23;20140;-83
2021/05/26 01:55:48;;;;;;;1.67;1.40;;;9.60;99.90;;;;;;6180037;23;20388;-83
2021/05/26 01:58:22;;;;;;;1.73;1.63;;;9.60;99.90;;;;;;6142061;23;20407;-83
2021/05/26 02:00:57;;;;;;;1.80;1.27;;;9.60;99.90;;;;;;6131605;23;20440;-84
2021/05/26 02:03:35;;;;;;;2.90;1.50;;;9.60;99.90;;;;;;6115577;23;20387;-82
2021/05/26 02:06:07;;;;;;;2.03;1.50;;;9.60;99.90;;;;;;6141109;23;20351;-82
2021/05/26 02:08:36;;;;;;;1.60;1.50;;;9.70;99.90;;;;;;6115873;23;20817;-82
2021/05/26 02:13:49;;;;;;;2.00;1.80;;;9.60;99.90;;;;;;6141606;23;20195;-83
2021/05/26 02:16:15;;;;;;;2.07;1.73;;;9.60;99.90;;;;;;6142290;23;20383;-83
2021/05/26 02:18:44;;;;;;;1.73;1.20;;;9.60;99.90;;;;;;6117775;23;20463;-83
2021/05/26 02:21:12;;;;;;;1.17;1.07;;;9.60;99.90;;;;;;6118358;23;20382;-83
2021/05/26 02:23:41;;;;;;;1.33;1.23;;;9.60;99.90;;;;;;6141347;23;20418;-83
2021/05/26 02:26:09;;;;;;;1.80;1.60;;;9.60;99.90;;;;;;6141063;23;20407;-83
2021/05/26 02:28:39;;;;;;;1.77;1.67;;;9.60;99.90;;;;;;6139826;23;20434;-83
2021/05/26 02:31:20;;;;;;;2.20;1.40;;;9.60;99.90;;;;;;6141063;23;20368;-83
2021/05/26 02:33:51;;;;;;;2.20;1.40;;;9.70;99.90;;;;;;6141232;23;20365;-83
2021/05/26 02:36:18;;;;;;;3.80;1.40;;;9.70;99.90;;;;;;6167554;23;20336;-83
2021/05/26 02:38:51;;;;;;;1.10;1.00;;;9.70;99.90;;;;;;6166686;23;20407;-83
2021/05/26 02:41:20;;;;;;;1.63;1.33;;;9.60;99.90;;;;;;6116186;23;20385;-83
2021/05/26 02:43:59;;;;;;;1.87;1.63;;;9.60;99.90;;;;;;6140029;23;20379;-83
2021/05/26 02:46:37;;;;;;;1.50;1.40;;;9.50;99.90;;;;;;6141283;23;20383;-84
2021/05/26 02:49:14;;;;;;;1.67;1.43;;;9.50;99.90;;;;;;6140525;23;20479;-83
2021/05/26 02:51:41;;;;;;;2.33;1.80;;;9.50;99.90;;;;;;6140467;23;20371;-82
2021/05/26 02:54:07;;;;;;;1.53;1.23;;;9.50;99.90;;;;;;6115573;23;20381;-83
2021/05/26 02:56:37;;;;;;;2.10;1.93;;;9.50;99.90;;;;;;6166518;23;20431;-83
2021/05/26 02:59:31;;;;;;;2.23;1.57;;;9.50;99.90;;;;;;6150912;23;20742;-83
2021/05/26 03:02:17;;;;;;;2.33;1.40;;;9.60;99.90;;;;;;6155504;23;20389;-83
2021/05/26 03:05:03;;;;;;;1.27;1.17;;;9.60;99.90;;;;;;6166803;23;20363;-83
2021/05/26 03:07:30;;;;;;;2.40;1.37;;;9.60;99.90;;;;;;6165138;23;20378;-82
2021/05/26 03:09:56;;;;;;;2.60;1.50;;;9.60;99.90;;;;;;6164899;23;20428;-83
2021/05/26 03:12:23;;;;;;;1.47;1.30;;;9.60;99.90;;;;;;6165708;23;20396;-82
2021/05/26 03:14:56;;;;;;;2.23;1.90;;;9.70;99.90;;;;;;6140267;23;20912;-82
2021/05/26 03:17:39;;;;;;;2.30;1.87;;;9.70;99.90;;;;;;6165057;23;20367;-83
2021/05/26 03:20:28;;;;;;;2.40;1.40;;;9.70;99.90;;;;;;6165617;23;20403;-83
2021/05/26 03:23:23;;;;;;;2.97;1.87;;;9.70;99.90;;;;;;6168415;23;20394;-82
2021/05/26 03:26:11;;;;;;;1.93;1.60;;;9.70;99.90;;;;;;6169347;23;20355;-82
2021/05/26 03:28:37;;;;;;;1.77;1.67;;;9.80;99.90;;;;;;6165100;23;20427;-83
2021/05/26 03:31:03;;;;;;;1.50;1.40;;;9.80;99.90;;;;;;6165543;23;20387;-83
2021/05/26 03:33:29;;;;;;;1.87;1.50;;;9.80;99.90;;;;;;6165701;23;20376;-82
2021/05/26 03:36:00;;;;;;;4.70;2.00;;;9.80;99.90;;;;;;6166223;23;20847;-83
2021/05/26 03:38:26;;;;;;;1.70;1.50;;;9.90;99.90;;;;;;6142126;23;20410;-82
2021/05/26 03:41:22;;;;;;;1.90;1.73;;;9.90;99.90;;;;;;6148739;23;20414;-82
2021/05/26 03:43:56;;;;;;;4.10;3.57;;;10.00;99.90;;;;;;6168507;23;20411;-83
2021/05/26 03:46:24;;;;;;;3.73;1.87;;;10.00;99.90;;;;;;6139602;23;20375;-83
2021/05/26 03:49:04;;;;;;;;;;;;;;;;;;;;;
2021/05/26 03:51:34;;;;;;;4.30;2.53;;;10.00;99.90;;;;;;6164496;23;20376;-83
2021/05/26 03:54:05;;;;;;;1.63;1.47;;;10.10;99.90;;;;;;6139538;23;20379;-83
2021/05/26 03:56:42;;;;;;;2.83;1.40;;;10.10;99.90;;;;;;6165221;23;20363;-83
2021/05/26 03:59:15;;;;;;;2.00;1.80;;;10.10;99.90;;;;;;6164876;23;20462;-83
2021/05/26 04:01:46;;;;;;;2.20;1.60;;;10.10;99.90;;;;;;6140542;23;20393;-83
2021/05/26 04:04:15;;;;;;;1.83;1.60;;;10.20;99.90;;;;;;6165696;23;20348;-83
2021/05/26 04:06:52;;;;;;;2.10;2.00;;;10.30;99.90;;;;;;6165506;23;20380;-83
2021/05/26 04:09:22;;;;;;;3.13;1.93;;;10.50;99.90;;;;;;6165584;23;20460;-83
2021/05/26 04:11:53;;;;;;;2.13;1.63;;;10.90;99.90;;;;;;6140754;23;20400;-83
2021/05/26 04:15:07;;;;;;;3.97;2.47;;;11.50;99.90;;;;;;6145539;23;20390;-84
2021/05/26 04:17:55;;;;;;;2.73;1.67;;;12.20;99.90;;;;;;6167363;23;20371;-82
2021/05/26 04:20:30;;;;;;;1.70;1.60;;;12.50;99.90;;;;;;6165551;23;20443;-82
2021/05/26 04:22:57;;;;;;;2.70;2.20;;;12.40;99.90;;;;;;6137877;23;20384;-82
2021/05/26 04:25:28;;;;;;;4.10;1.70;;;12.70;99.90;;;;;;6163070;23;20765;-82
2021/05/26 04:28:04;;;;;;;1.70;1.47;;;12.60;99.90;;;;;;6165513;23;20379;-82
2021/05/26 04:30:52;;;;;;;1.40;1.30;;;12.30;99.90;;;;;;6165020;23;20413;-83
2021/05/26 04:33:26;;;;;;;1.50;1.33;;;12.00;99.90;;;;;;6163934;23;20427;-83
2021/05/26 04:36:00;;;;;;;2.60;1.57;;;11.80;99.90;;;;;;6164344;23;20395;-83
2021/05/26 04:38:38;;;;;;;2.33;1.77;;;11.70;99.90;;;;;;6140770;23;20399;-83
2021/05/26 04:41:17;;;;;;;3.87;2.20;;;11.80;99.90;;;;;;6166344;23;20382;-83
2021/05/26 04:43:43;;;;;;;6.40;3.20;;;11.90;99.90;;;;;;6164691;23;20387;-83
2021/05/26 04:46:21;;;;;;;2.27;1.83;;;12.30;99.90;;;;;;6141524;23;20367;-83
2021/05/26 04:48:52;;;;;;;4.63;2.87;;;12.50;99.90;;;;;;6165635;23;20438;-83
2021/05/26 04:51:28;;;;;;;3.13;2.13;;;14.10;99.90;;;;;;6144345;23;20474;-83
2021/05/26 04:54:01;;;;;;;2.37;1.70;;;14.80;99.90;;;;;;6167826;23;20376;-83
2021/05/26 04:56:56;;;;;;;1.53;1.43;;;16.30;99.90;;;;;;6176201;23;20370;-83
2021/05/26 04:59:41;;;;;;;2.57;1.57;;;18.80;99.90;;;;;;6164469;23;20584;-84
2021/05/26 05:02:42;;;;;;;;;;;;;;;;;;;;;
2021/05/26 05:05:33;;;;;;;;;;;;;;;;;;;;;
2021/05/26 05:08:23;;;;;;;1.80;1.70;;;16.60;99.90;;;;;;6154404;23;20397;-83
2021/05/26 05:11:27;;;;;;;2.70;1.70;;;17.50;99.90;;;;;;6179113;23;20371;-85
2021/05/26 05:14:52;;;;;;;2.47;2.20;;;17.80;99.90;;;;;;6130402;23;20386;-82
2021/05/26 05:17:49;;;;;;;2.83;2.30;;;17.50;99.90;;;;;;6153346;23;20355;-83
2021/05/26 05:21:04;;;;;;;4.20;3.70;;;16.60;99.90;;;;;;6146186;23;20423;-83
2021/05/26 05:27:45;;;;;;;5.20;2.00;;;21.20;99.90;;;;;;6072241;23;20411;-83
2021/05/26 05:30:35;;;;;;;1.70;1.60;;;21.00;99.90;;;;;;6138468;23;20431;-84
2021/05/26 05:33:28;;;;;;;2.10;1.90;;;20.10;99.90;;;;;;6135866;23;20716;-84
2021/05/26 05:36:17;;;;;;;;;;;;;;;;;;;;;
2021/05/26 05:39:28;;;;;;;1.97;1.87;;;16.00;99.90;;;;;;6170015;23;20398;-83
2021/05/26 05:42:11;;;;;;;5.50;2.43;;;15.80;99.90;;;;;;6144440;23;20373;-83
2021/05/26 05:45:52;;;;;;;3.53;2.07;;;16.10;99.90;;;;;;6143657;23;20405;-84
2021/05/26 05:48:39;;;;;;;2.57;1.73;;;15.20;99.90;;;;;;6166145;23;20409;-84
2021/05/26 05:52:10;;;;;;;3.70;3.40;;;15.40;99.90;;;;;;6146248;23;20382;-84
2021/05/26 05:55:29;;;;;;;4.10;3.67;;;15.70;99.90;;;;;;6047838;23;20424;-84
2021/05/26 05:58:14;;;;;;;5.50;2.73;;;15.70;99.90;;;;;;5998008;23;20466;-83
2021/05/26 06:00:53;;;;;;;3.03;1.97;;;15.20;99.90;;;;;;6181508;23;20452;-88
2021/05/26 06:03:19;;;;;;;3.30;2.53;;;14.60;99.90;;;;;;6224926;23;20374;-86
2021/05/26 06:05:45;;;;;;;2.80;2.60;;;14.00;99.90;;;;;;6201765;23;20456;-85
2021/05/26 06:08:14;;;;;;;6.23;2.30;;;13.70;99.90;;;;;;6201700;23;20367;-85
2021/05/26 06:10:46;;;;;;;5.53;2.10;;;13.70;99.90;;;;;;6177646;23;20390;-86
2021/05/26 06:13:12;;;;;;;2.77;2.57;;;13.80;99.90;;;;;;6144688;23;20380;-86
2021/05/26 06:15:38;;;;;;;2.83;2.20;;;14.20;99.90;;;;;;6170361;23;20369;-86
2021/05/26 06:18:08;;;;;;;2.60;2.03;;;14.00;99.90;;;;;;6172955;23;20140;-86
2021/05/26 06:20:34;;;;;;;3.63;2.50;;;14.00;99.90;;;;;;6145209;23;20396;-87
2021/05/26 06:23:03;;;;;;;3.90;2.47;;;13.60;99.90;;;;;;6169004;23;20458;-85
2021/05/26 06:25:38;;;;;;;2.57;2.37;;;13.50;99.90;;;;;;6142278;23;20387;-87
2021/05/26 06:28:10;;;;;;;3.70;2.93;;;13.40;99.90;;;;;;6167023;23;20371;-84
2021/05/26 06:30:36;;;;;;;4.97;2.80;;;13.10;99.90;;;;;;6168162;23;20418;-87
2021/05/26 06:33:04;;;;;;;2.77;2.40;;;13.30;99.90;;;;;;6167677;23;20398;-86
2021/05/26 06:35:33;;;;;;;4.00;2.23;;;13.60;99.90;;;;;;6166920;23;20401;-86
2021/05/26 06:38:05;;;;;;;4.70;2.80;;;14.20;99.90;;;;;;6146206;23;20827;-89
2021/05/26 06:40:33;;;;;;;3.87;2.63;;;14.50;99.90;;;;;;6143852;23;20499;-87
2021/05/26 06:42:59;;;;;;;7.53;2.77;;;14.70;99.90;;;;;;6171564;23;20688;-86
2021/05/26 06:45:25;;;;;;;2.90;2.60;;;14.60;99.90;;;;;;6170719;23;20542;-88
2021/05/26 06:47:51;;;;;;;3.00;2.00;;;15.50;99.90;;;;;;6147008;23;20388;-87
2021/05/26 06:50:17;;;;;;;6.77;2.30;;;15.80;99.90;;;;;;6169444;23;20182;-87
2021/05/26 06:52:49;;;;;;;2.40;2.20;;;16.20;99.90;;;;;;6168589;23;20151;-88
2021/05/26 06:55:19;;;;;;;4.30;2.37;;;15.90;99.90;;;;;;6145608;23;20367;-86
2021/05/26 06:57:48;;;;;;;4.63;2.67;;;15.50;99.90;;;;;;6171145;23;20379;-85
2021/05/26 07:00:15;;;;;;;4.27;2.33;;;15.30;99.90;;;;;;6169597;23;20519;-87
2021/05/26 07:03:01;;;;;;;;;;;;;;;;;;;;;
2021/05/26 07:05:35;;;;;;;3.37;2.33;;;14.80;99.90;;;;;;6169115;23;20387;-86
2021/05/26 07:08:07;;;;;;;2.43;1.90;;;14.70;99.90;;;;;;6169484;23;20387;-87
2021/05/26 07:10:47;;;;;;;2.50;2.00;;;15.00;99.90;;;;;;6169824;23;20438;-87
2021/05/26 07:13:18;;;;;;;2.60;1.73;;;15.10;99.90;;;;;;6169025;23;20673;-87
2021/05/26 07:16:13;;;;;;;5.90;2.83;;;15.40;99.90;;;;;;6167561;23;20357;-86
2021/05/26 07:31:59;;;;;;;7.23;2.30;;;15.60;99.90;;;;;;6077162;23;20471;-87
2021/05/26 07:35:32;;;;;;;2.37;2.17;;;15.30;99.90;;;;;;6107704;23;20393;-87
2021/05/26 07:38:30;;;;;;;4.33;2.90;;;15.20;99.90;;;;;;6087948;23;20447;-88
2021/05/26 07:41:09;;;;;;;3.97;3.03;;;15.50;99.90;;;;;;6081199;23;20398;-88
2021/05/26 07:47:50;;;;;;;;;;;;;;;;;;;;;
2021/05/26 07:51:14;;;;;;;5.60;2.30;;;16.00;99.90;;;;;;6172260;23;20780;-88
2021/05/26 07:54:27;;;;;;;2.23;2.03;;;16.10;99.90;;;;;;6182817;23;20402;-86
2021/05/26 07:58:05;;;;;;;2.93;2.67;;;16.30;99.90;;;;;;6191637;23;20386;-87
2021/05/26 08:01:17;;;;;;;2.37;1.90;;;16.10;99.90;;;;;;6187918;23;20964;-88
2021/05/26 08:08:01;;;;;;;6.60;2.60;;;16.30;99.90;;;;;;6089802;23;20376;-87
2021/05/26 08:18:33;;;;;;;2.67;2.47;;;16.20;99.90;;;;;;6231281;23;20476;-89
2021/05/26 08:34:42;;;;;;;6.27;2.50;;;15.30;99.90;;;;;;6242442;23;20469;-86
2021/05/26 09:16:51;;;;;;;2.73;2.40;;;17.50;99.90;;;;;;6200187;23;20996;-88
2021/05/26 09:30:21;;;;;;;3.77;3.33;;;17.00;99.90;;;;;;6107284;23;21019;-87
2021/05/26 09:37:30;;;;;;;;;;;;;;;;;;;;;
2021/05/26 09:44:50;;;;;;;4.67;2.43;;;16.50;99.90;;;;;;6049335;23;20890;-86
2021/05/26 09:48:33;;;;;;;;;;;;;;;;;;;;;
2021/05/26 09:51:38;;;;;;;4.23;2.20;;;16.80;99.90;;;;;;6104788;23;20413;-87
2021/05/26 09:54:49;;;;;;;2.00;1.80;;;17.50;99.90;;;;;;6082987;23;20385;-86
2021/05/26 09:57:17;;;;;;;3.10;2.33;;;17.50;99.90;;;;;;6063397;23;20362;-85
2021/05/26 10:09:19;;;;;;;3.33;3.03;;;16.90;99.90;;;;;;6230540;23;20515;-86
2021/05/26 10:16:44;;;;;;;3.27;2.67;;;17.50;99.90;;;;;;6011440;23;20491;-88
2021/05/26 10:20:25;;;;;;;2.93;1.63;;;17.60;99.90;;;;;;6025000;23;20408;-88
2021/05/26 10:23:50;;;;;;;;;;;;;;;;;;;;;
2021/05/26 12:21:47;;;;;;;;;;;;;;;;;;;;;
2021/05/26 12:24:45;;;;;;;1.77;1.10;;;18.30;99.90;;;;;;6228613;23;20473;-87
2021/05/26 12:27:36;;;;;;;2.67;1.70;;;18.10;99.90;;;;;;6233756;23;20362;-87
2021/05/26 13:57:34;;;;;;;2.33;1.37;;;18.20;99.90;;;;;;6193272;23;20426;-86
2021/05/26 14:00:47;;;;;;;4.23;1.50;;;18.20;99.90;;;;;;6195402;23;20849;-87
2021/05/26 14:43:50;;;;;;;2.17;1.10;;;18.20;99.90;;;;;;6225441;23;20433;-84
2021/05/26 14:46:16;;;;;;;2.07;1.20;;;18.30;99.90;;;;;;6200192;23;20369;-84
2021/05/26 14:48:45;;;;;;;1.77;1.20;;;18.30;99.90;;;;;;6200767;23;20409;-83
2021/05/26 14:51:15;;;;;;;4.33;1.77;;;18.30;99.90;;;;;;6185317;23;20441;-83
2021/05/26 14:53:41;;;;;;;2.30;1.60;;;18.30;99.90;;;;;;6170205;23;20386;-83
2021/05/26 14:56:07;;;;;;;1.67;1.27;;;18.40;99.90;;;;;;6169198;23;20703;-83
2021/05/26 14:58:35;;;;;;;1.40;1.13;;;18.60;99.90;;;;;;6195604;23;20513;-83
2021/05/26 15:01:01;;;;;;;1.03;0.93;;;18.40;99.90;;;;;;6169646;23;20489;-83
2021/05/26 15:03:27;;;;;;;2.07;1.90;;;18.20;99.90;;;;;;6195252;23;20402;-84
2021/05/26 15:05:52;;;;;;;5.50;2.17;;;18.20;99.90;;;;;;6169360;23;20375;-84
2021/05/26 15:08:20;;;;;;;1.70;1.40;;;18.40;99.90;;;;;;6169668;23;20146;-84
2021/05/26 15:10:52;;;;;;;4.07;1.40;;;18.50;99.90;;;;;;6195850;23;20395;-86
2021/05/26 15:13:33;;;;;;;1.83;0.90;;;18.10;99.90;;;;;;6171696;23;20454;-84
2021/05/26 15:16:05;;;;;;;3.57;1.60;;;18.00;99.90;;;;;;6169692;23;20418;-84
2021/05/26 15:18:31;;;;;;;1.20;1.10;;;17.70;99.90;;;;;;6145164;23;20379;-84
2021/05/26 15:20:56;;;;;;;2.30;1.43;;;17.80;99.90;;;;;;6195133;23;20425;-85
2021/05/26 15:23:23;;;;;;;3.10;1.43;;;17.70;99.90;;;;;;6169433;23;20382;-82
2021/05/26 15:25:50;;;;;;;1.30;1.20;;;17.60;99.90;;;;;;6195523;23;20140;-83
2021/05/26 15:28:16;;;;;;;1.73;1.10;;;17.60;99.90;;;;;;6167784;23;20406;-83
2021/05/26 15:30:43;;;;;;;1.27;1.13;;;17.70;99.90;;;;;;6196119;23;20418;-84
2021/05/26 15:33:10;;;;;;;1.27;1.00;;;17.40;99.90;;;;;;6144625;23;20147;-83
2021/05/26 15:35:36;;;;;;;3.63;1.70;;;17.10;99.90;;;;;;6170078;23;20606;-83
2021/05/26 15:38:12;;;;;;;6.67;6.07;;;16.90;99.90;;;;;;6171706;23;20454;-85
2021/05/26 15:40:54;;;;;;;2.10;1.30;;;17.10;99.90;;;;;;6195197;23;20490;-86
2021/05/26 15:43:20;;;;;;;2.17;1.20;;;17.30;99.90;;;;;;6222920;23;20746;-85
2021/05/26 15:45:46;;;;;;;1.87;1.10;;;17.30;99.90;;;;;;6198556;23;20388;-84
2021/05/26 15:48:12;;;;;;;0.90;0.80;;;17.40;99.90;;;;;;6202682;23;20370;-85
2021/05/26 15:50:41;;;;;;;3.40;2.13;;;17.40;99.90;;;;;;6222248;23;20398;-84
2021/05/26 15:53:07;;;;;;;2.20;1.60;;;17.50;99.90;;;;;;6173174;23;20399;-84
2021/05/26 15:55:37;;;;;;;1.30;1.20;;;17.80;99.90;;;;;;6198634;23;20405;-84
2021/05/26 15:58:07;;;;;;;0.80;0.80;;;17.70;99.90;;;;;;6171949;23;20429;-84
2021/05/26 16:00:34;;;;;;;0.90;0.70;;;17.70;99.90;;;;;;6145507;23;20398;-85
2021/05/26 16:03:00;;;;;;;0.80;0.70;;;17.60;99.90;;;;;;6203512;23;20849;-86
2021/05/26 16:05:27;;;;;;;1.33;1.00;;;17.70;99.90;;;;;;6207869;23;20425;-85
2021/05/26 16:07:54;;;;;;;7.63;1.00;;;17.60;99.90;;;;;;6180020;23;20367;-86
2021/05/26 16:10:21;;;;;;;4.53;1.43;;;17.70;99.90;;;;;;6179066;23;20511;-85
2021/05/26 16:12:48;;;;;;;2.20;1.00;;;17.20;99.90;;;;;;6154308;23;20454;-85
2021/05/26 16:15:15;;;;;;;2.13;1.30;;;17.20;99.90;;;;;;6180141;23;20446;-85
2021/05/26 16:17:42;;;;;;;1.27;0.80;;;17.20;99.90;;;;;;6154688;23;20366;-86
2021/05/26 16:20:34;;;;;;;2.47;1.23;;;17.20;99.90;;;;;;6204972;23;20410;-85
2021/05/26 16:23:45;;;;;;;1.30;1.03;;;17.10;99.90;;;;;;6163897;23;20410;-85
2021/05/26 16:29:24;;;;;;;3.37;1.30;;;17.20;99.90;;;;;;6187607;23;20417;-85
2021/05/26 16:32:00;;;;;;;2.30;1.10;;;17.20;99.90;;;;;;6193058;23;20452;-84
2021/05/26 16:34:27;;;;;;;1.47;1.10;;;17.20;99.90;;;;;;6141926;23;20458;-85
2021/05/26 16:37:04;;;;;;;0.90;0.83;;;17.40;99.90;;;;;;6145263;23;20383;-85
2021/05/26 16:39:31;;;;;;;2.87;2.40;;;17.30;99.90;;;;;;6167229;23;20374;-84
2021/05/26 16:41:57;;;;;;;3.67;1.10;;;17.10;99.90;;;;;;6193281;23;20437;-85
2021/05/26 16:44:23;;;;;;;1.20;1.10;;;17.00;99.90;;;;;;6195077;23;20868;-84
2021/05/26 16:46:50;;;;;;;4.30;1.17;;;16.80;99.90;;;;;;6168070;23;20401;-85
2021/05/26 16:49:19;;;;;;;1.27;1.10;;;16.70;99.90;;;;;;6171132;23;20434;-88
2021/05/26 16:51:47;;;;;;;4.10;1.23;;;16.80;99.90;;;;;;6195079;23;20883;-86
2021/05/26 16:54:24;;;;;;;1.30;0.80;;;17.00;99.90;;;;;;6169482;23;20386;-86
2021/05/26 16:56:51;;;;;;;2.10;1.90;;;16.90;99.90;;;;;;6166625;23;20386;-85
2021/05/26 16:59:32;;;;;;;1.10;0.90;;;17.10;99.90;;;;;;6150310;23;20393;-85
2021/05/26 17:02:23;;;;;;;1.03;0.90;;;17.30;99.90;;;;;;6153229;23;20406;-85
2021/05/26 17:04:59;;;;;;;1.50;1.40;;;17.30;99.90;;;;;;6161519;23;20484;-85
2021/05/26 17:07:25;;;;;;;2.20;1.40;;;17.00;99.90;;;;;;6157105;23;20379;-85
2021/05/26 17:10:05;;;;;;;1.50;1.40;;;16.80;99.90;;;;;;6200272;23;20180;-85
2021/05/26 17:13:03;;;;;;;1.10;0.93;;;16.70;99.90;;;;;;6169487;23;20371;-84
2021/05/26 17:15:29;;;;;;;2.17;1.13;;;16.60;99.90;;;;;;6154620;23;20825;-85
2021/05/26 17:17:58;;;;;;;1.57;1.27;;;16.50;99.90;;;;;;6145395;23;20405;-85
2021/05/26 17:20:50;;;;;;;;;;;;;;;;;;;;;
2021/05/26 17:23:51;;;;;;;2.87;1.50;;;16.00;99.90;;;;;;6197521;23;20374;-86
2021/05/26 17:30:42;;;;;;;2.70;1.27;;;15.90;99.90;;;;;;6195430;23;20453;-84
2021/05/26 17:33:19;;;;;;;3.20;1.60;;;15.90;99.90;;;;;;6170076;23;20399;-85
2021/05/26 17:35:45;;;;;;;1.33;1.23;;;15.90;99.90;;;;;;6194806;23;20362;-84
2021/05/26 17:38:48;;;;;;;1.30;1.20;;;15.90;99.90;;;;;;6172013;23;20385;-84
2021/05/26 17:41:19;;;;;;;1.57;1.47;;;15.80;99.90;;;;;;6169851;23;20916;-85
2021/05/26 17:43:54;;;;;;;2.60;1.60;;;15.70;99.90;;;;;;6195690;23;20429;-84
2021/05/26 17:46:20;;;;;;;1.87;1.23;;;15.70;99.90;;;;;;6196812;23;20447;-84
2021/05/26 17:48:55;;;;;;;1.20;1.10;;;15.60;99.90;;;;;;6197629;23;20414;-84
2021/05/26 17:51:45;;;;;;;1.60;1.50;;;15.50;99.90;;;;;;6197953;23;20233;-84
2021/05/26 17:54:13;;;;;;;3.53;2.03;;;15.50;99.90;;;;;;6197226;23;20409;-83
2021/05/26 17:56:41;;;;;;;2.67;1.53;;;15.40;99.90;;;;;;6195753;23;20146;-85
2021/05/26 17:59:08;;;;;;;1.30;1.20;;;15.30;99.90;;;;;;6168976;23;20377;-85
2021/05/26 18:26:38;;;;;;;7.07;4.90;;;17.10;99.90;;;;;;6192750;23;20514;-88
2021/05/26 19:06:06;;;;;;;1.40;1.30;;;13.90;99.90;;;;;;6229405;23;20444;-87
2021/05/26 19:08:50;;;;;;;2.33;2.10;;;13.90;99.90;;;;;;6232648;23;20409;-89
2021/05/26 19:11:43;;;;;;;1.50;1.40;;;13.90;99.90;;;;;;6224547;23;20429;-88
2021/05/26 19:14:20;;;;;;;2.60;2.40;;;13.80;99.90;;;;;;6173053;23;20375;-88
2021/05/26 19:16:55;;;;;;;4.20;2.47;;;13.80;99.90;;;;;;6197806;23;20380;-88
2021/05/26 19:19:32;;;;;;;2.57;1.77;;;13.70;99.90;;;;;;6197175;23;20841;-89
2021/05/26 19:22:14;;;;;;;1.97;1.53;;;13.70;99.90;;;;;;6196909;23;20402;-88
2021/05/26 19:24:42;;;;;;;3.30;2.03;;;13.60;99.90;;;;;;6173153;23;20669;-87
2021/05/26 19:27:17;;;;;;;3.37;2.57;;;13.50;99.90;;;;;;6195708;23;20389;-87
2021/05/26 19:30:02;;;;;;;4.60;3.50;;;13.50;99.90;;;;;;6171492;23;20427;-86
2021/05/26 19:32:43;;;;;;;4.50;4.20;;;13.40;99.90;;;;;;6177415;23;20409;-88
2021/05/26 19:36:01;;;;;;;4.40;2.57;;;13.40;99.90;;;;;;6173822;23;20490;-87
2021/05/26 19:38:45;;;;;;;2.60;2.20;;;13.30;99.90;;;;;;6189481;23;20858;-87
2021/05/26 19:41:45;;;;;;;4.20;1.90;;;13.30;99.90;;;;;;6099386;23;20426;-87
2021/05/26 19:44:28;;;;;;;2.10;1.93;;;13.30;99.90;;;;;;6104829;23;20408;-87
2021/05/26 19:47:16;;;;;;;;;;;;;;;;;;;;;
2021/05/26 19:50:19;;;;;;;9.60;6.80;;;13.20;99.90;;;;;;6105534;23;20490;-88
2021/05/26 19:54:02;;;;;;;5.37;4.63;;;13.10;99.90;;;;;;6216862;23;20433;-88
2021/05/26 19:56:55;;;;;;;4.40;3.30;;;13.10;99.90;;;;;;6197767;23;20435;-88
2021/05/26 20:00:03;;;;;;;3.83;2.50;;;13.00;99.90;;;;;;6197463;23;20371;-88
2021/05/26 20:02:59;;;;;;;2.40;2.20;;;13.00;99.90;;;;;;6194839;23;20737;-89
2021/05/26 20:05:49;;;;;;;;;;;;;;;;;;;;;
2021/05/26 20:16:14;;;;;;;2.50;1.93;;;12.90;99.90;;;;;;6024390;23;20403;-88
2021/05/26 20:19:25;;;;;;;1.90;1.67;;;12.80;99.90;;;;;;6086753;23;20381;-88
2021/05/26 20:22:52;;;;;;;2.10;1.90;;;12.70;99.90;;;;;;6081794;23;20405;-87
2021/05/26 20:25:51;;;;;;;3.17;2.40;;;12.60;99.90;;;;;;6083715;23;20787;-85
2021/05/26 20:28:41;;;;;;;4.23;2.30;;;12.60;99.90;;;;;;6116150;23;20372;-87
2021/05/26 20:31:27;;;;;;;2.40;2.20;;;12.50;99.90;;;;;;6124202;23;20423;-87
2021/05/26 20:34:04;;;;;;;1.60;1.37;;;12.50;99.90;;;;;;6104699;23;20460;-88
2021/05/26 20:36:30;;;;;;;3.07;2.70;;;12.50;99.90;;;;;;6103874;23;20583;-87
2021/05/26 20:38:58;;;;;;;2.37;2.17;;;12.50;99.90;;;;;;6126197;23;20364;-87
2021/05/26 20:41:38;;;;;;;1.50;1.40;;;12.50;99.90;;;;;;6148963;23;20167;-87
2021/05/26 20:44:23;;;;;;;7.03;2.73;;;12.50;99.90;;;;;;6203690;23;20399;-86
2021/05/26 20:47:08;;;;;;;3.40;3.10;;;12.50;99.90;;;;;;6231017;23;20371;-88
2021/05/26 20:49:42;;;;;;;3.60;2.00;;;12.50;99.90;;;;;;6206664;23;20441;-87
2021/05/26 20:52:15;;;;;;;2.07;1.87;;;12.50;99.90;;;;;;6180981;23;20399;-88
2021/05/26 20:54:44;;;;;;;1.53;1.43;;;12.50;99.90;;;;;;6204638;23;20409;-87
2021/05/26 20:57:13;;;;;;;3.03;2.20;;;12.40;99.90;;;;;;6202788;23;20379;-88
2021/05/26 20:59:38;;;;;;;2.00;1.90;;;12.40;99.90;;;;;;6204766;23;20391;-87
2021/05/26 21:02:24;;;;;;;2.87;2.67;;;12.40;99.90;;;;;;6205361;23;20417;-89
2021/05/26 21:05:08;;;;;;;;;;;;;;;;;;;;;
2021/05/26 21:07:45;;;;;;;3.37;1.87;;;12.30;99.90;;;;;;6201553;23;20386;-87
2021/05/26 21:10:21;;;;;;;2.50;2.30;;;12.30;99.90;;;;;;6203348;23;20414;-86
2021/05/26 21:13:12;;;;;;;;;;;;;;;;;;;;;
2021/05/26 21:15:47;;;;;;;1.90;1.70;;;12.30;99.90;;;;;;6201441;23;20366;-86
2021/05/26 21:18:16;;;;;;;2.47;2.20;;;12.20;99.90;;;;;;6178596;23;20371;-88
2021/05/26 21:20:45;;;;;;;3.73;3.43;;;12.20;99.90;;;;;;6203812;23;20394;-85
2021/05/26 21:23:19;;;;;;;2.27;2.07;;;12.20;99.90;;;;;;6176867;23;20394;-88
2021/05/26 21:25:52;;;;;;;2.40;2.20;;;12.20;99.90;;;;;;6200270;23;20454;-88
2021/05/26 21:28:27;;;;;;;2.43;2.23;;;12.10;99.90;;;;;;6199985;23;20363;-87
2021/05/26 21:30:59;;;;;;;1.70;1.60;;;12.10;99.90;;;;;;6173955;23;20729;-86
2021/05/26 21:33:28;;;;;;;4.00;2.77;;;12.10;99.90;;;;;;6174287;23;20385;-88
2021/05/26 21:36:01;;;;;;;2.53;1.97;;;12.10;99.90;;;;;;6197158;23;20443;-87